Time;durP1;ratioP1;P1;durP2;ratioP2;P2;SDS_P1;SDS_P2;PMS_P1;PMS_P2;Temp;Humidity;BMP_temperature;BMP_pressure;BME280_temperature;BME280_humidity;BME280_pressure;Samples;Min_cycle;Max_cycle;Signal;HPM_P1;HPM_P2
2023/07/20 00:01:44;;;;;;;9.98;5.10;;;;;;;18.62;85.09;99158.66;5082759;28;20122;-83
2023/07/20 00:04:28;;;;;;;6.43;4.90;;;;;;;18.91;84.68;99150.56;5077192;28;20040;-83
2023/07/20 00:07:12;;;;;;;9.23;4.80;;;;;;;19.07;83.90;99158.75;5078561;28;20100;-83
2023/07/20 00:09:57;;;;;;;7.00;5.15;;;;;;;19.22;83.12;99142.94;5082784;28;20042;-83
2023/07/20 00:12:41;;;;;;;8.73;4.93;;;;;;;19.16;83.21;99157.25;5084337;28;20035;-83
2023/07/20 00:15:25;;;;;;;7.60;4.82;;;;;;;18.96;84.02;99153.25;5077693;28;20051;-82
2023/07/20 00:18:09;;;;;;;10.18;5.38;;;;;;;18.58;85.54;99152.25;5078747;28;20059;-82
2023/07/20 00:20:53;;;;;;;10.40;5.20;;;;;;;18.45;87.20;99149.91;5083830;28;20050;-82
2023/07/20 00:23:37;;;;;;;9.73;5.38;;;;;;;18.21;88.92;99150.09;5082739;28;20215;-82
2023/07/20 00:26:22;;;;;;;9.48;5.70;;;;;;;18.36;89.35;99157.50;5078060;28;20120;-82
2023/07/20 00:29:06;;;;;;;10.70;5.75;;;;;;;18.42;90.25;99143.25;5078076;28;20126;-82
2023/07/20 00:31:50;;;;;;;8.23;5.57;;;;;;;18.45;89.80;99148.06;5077610;28;20055;-82
2023/07/20 00:34:34;;;;;;;7.45;5.50;;;;;;;18.34;90.55;99155.09;5081634;28;20150;-82
2023/07/20 00:37:19;;;;;;;13.13;5.85;;;;;;;18.18;91.32;99154.06;5077419;28;20519;-82
2023/07/20 00:40:09;;;;;;;14.32;6.22;;;;;;;18.05;93.07;99155.16;5079628;28;20244;-83
2023/07/20 00:42:53;;;;;;;13.68;5.70;;;;;;;18.75;90.75;99148.75;5080780;28;20039;-82
2023/07/20 00:45:38;;;;;;;10.30;6.22;;;;;;;18.41;90.87;99153.06;5079933;28;20052;-83
2023/07/20 00:48:23;;;;;;;8.80;6.18;;;;;;;18.50;91.52;99139.38;5081999;28;20054;-82
2023/07/20 00:51:07;;;;;;;9.05;5.88;;;;;;;18.05;91.87;99130.47;5081456;28;20050;-82
2023/07/20 00:53:51;;;;;;;10.43;6.22;;;;;;;18.42;90.59;99141.38;5078523;28;20055;-81
2023/07/20 00:56:36;;;;;;;8.48;5.63;;;;;;;18.60;90.00;99138.72;5079581;28;20124;-81
2023/07/20 00:59:21;;;;;;;9.35;5.25;;;;;;;18.55;89.80;99140.22;5081088;28;20050;-82
2023/07/20 01:02:05;;;;;;;8.30;5.38;;;;;;;18.50;89.88;99139.38;5076198;28;20047;-82
2023/07/20 01:04:50;;;;;;;10.35;5.70;;;;;;;18.77;88.90;99136.00;5078635;28;20075;-81
2023/07/20 01:07:46;;;;;;;8.82;5.30;;;;;;;18.62;88.92;99137.41;5080411;28;20066;-83
2023/07/20 01:10:51;;;;;;;8.15;4.95;;;;;;;18.42;89.35;99128.09;5083268;28;20165;-82
2023/07/20 01:13:37;;;;;;;9.60;5.18;;;;;;;18.51;89.18;99131.13;5077818;28;20128;-81
2023/07/20 01:16:21;;;;;;;12.18;5.93;;;;;;;18.46;89.44;99136.38;5079640;28;20090;-82
2023/07/20 01:19:05;;;;;;;7.85;5.50;;;;;;;18.49;90.61;99133.25;5081401;28;20559;-83
2023/07/20 01:22:01;;;;;;;10.00;5.88;;;;;;;18.28;91.46;99124.19;5084697;28;20461;-83
2023/07/20 01:25:05;;;;;;;8.65;5.80;;;;;;;18.33;91.47;99123.44;5079131;28;20086;-84
2023/07/20 01:28:04;;;;;;;10.52;5.70;;;;;;;18.61;90.70;99108.41;5076182;28;20040;-84
2023/07/20 01:31:13;;;;;;;7.80;5.72;;;;;;;17.92;92.47;99118.28;5080040;28;20089;-84
2023/07/20 01:34:03;;;;;;;13.27;6.68;;;;;;;17.99;93.15;99113.59;5078294;28;20056;-85
2023/07/20 01:36:49;;;;;;;9.45;6.07;;;;;;;18.16;92.66;99110.19;5079889;28;20131;-84
2023/07/20 01:39:35;;;;;;;6.88;5.50;;;;;;;18.48;91.30;99109.59;5076869;28;20059;-83
2023/07/20 01:42:19;;;;;;;9.48;6.13;;;;;;;18.16;92.00;99112.84;5081626;28;20055;-84
2023/07/20 01:45:03;;;;;;;8.45;6.10;;;;;;;18.26;91.97;99118.28;5076824;28;20039;-83
2023/07/20 01:47:53;;;;;;;9.98;5.97;;;;;;;18.53;90.54;99107.00;5072826;28;20106;-82
2023/07/20 01:50:38;;;;;;;9.85;5.95;;;;;;;18.21;90.91;99110.25;5077670;28;20504;-82
2023/07/20 01:53:22;;;;;;;8.90;6.03;;;;;;;18.23;90.97;99108.97;5076353;28;20035;-84
2023/07/20 01:56:06;;;;;;;12.20;6.22;;;;;;;18.07;91.54;99105.25;5075745;28;20459;-83
2023/07/20 01:58:51;;;;;;;8.63;6.07;;;;;;;18.34;90.70;99104.59;5082898;28;20181;-84
2023/07/20 02:01:35;;;;;;;10.57;6.18;;;;;;;18.24;90.94;99099.13;5078874;28;20409;-84
2023/07/20 02:04:19;;;;;;;8.57;6.03;;;;;;;17.85;92.96;99105.16;5075944;28;20031;-83
2023/07/20 02:07:03;;;;;;;15.20;6.65;;;;;;;17.98;93.10;99101.38;5076424;28;20082;-82
2023/07/20 02:09:47;;;;;;;9.00;6.65;;;;;;;17.84;93.06;99090.28;5078069;28;20043;-83
2023/07/20 02:12:31;;;;;;;9.05;5.88;;;;;;;17.58;94.54;99099.66;5079242;28;20113;-82
2023/07/20 02:15:18;;;;;;;11.02;6.32;;;;;;;18.02;93.10;99089.25;5078379;28;20452;-83
2023/07/20 02:18:03;;;;;;;10.80;6.63;;;;;;;17.81;94.88;99096.06;5079109;28;20175;-83
2023/07/20 02:20:47;;;;;;;10.48;6.65;;;;;;;17.67;95.55;99093.72;5076530;28;20069;-81
2023/07/20 02:23:32;;;;;;;7.95;5.97;;;;;;;17.79;95.62;99096.31;5078485;28;20102;-83
2023/07/20 02:26:16;;;;;;;11.02;7.00;;;;;;;17.78;95.60;99091.22;5080416;28;20047;-82
2023/07/20 02:29:00;;;;;;;9.40;6.53;;;;;;;17.64;96.77;99093.38;5074958;28;20047;-83
2023/07/20 02:31:45;;;;;;;9.63;6.88;;;;;;;17.38;97.24;99087.66;5078920;28;20402;-83
2023/07/20 02:34:29;;;;;;;9.07;5.80;;;;;;;17.84;97.51;99083.09;5075548;28;20094;-84
2023/07/20 02:37:13;;;;;;;9.80;5.80;;;;;;;17.70;97.50;99081.84;5081836;28;20077;-88
2023/07/20 02:39:57;;;;;;;9.82;6.95;;;;;;;17.72;97.52;99084.22;5077216;28;20051;-81
2023/07/20 02:42:41;;;;;;;10.02;6.35;;;;;;;17.75;97.82;99086.41;5079714;28;20062;-84
2023/07/20 02:45:25;;;;;;;11.32;5.97;;;;;;;17.75;97.25;99086.41;5078826;28;20047;-84
2023/07/20 02:48:09;;;;;;;11.05;6.55;;;;;;;17.58;98.24;99086.41;5079936;28;20112;-82
2023/07/20 02:50:53;;;;;;;8.90;6.13;;;;;;;17.91;97.32;99082.94;5081137;28;20094;-84
2023/07/20 02:53:41;;;;;;;8.70;6.28;;;;;;;18.38;95.10;99079.16;5079003;28;20086;-82
2023/07/20 02:56:25;;;;;;;9.02;6.10;;;;;;;18.58;94.03;99082.34;5079192;28;20075;-82
2023/07/20 02:59:09;;;;;;;10.52;6.70;;;;;;;18.46;94.08;99077.91;5073725;28;20047;-85
2023/07/20 03:01:54;;;;;;;8.57;6.47;;;;;;;18.32;94.50;99079.31;5081624;28;20447;-84
2023/07/20 03:04:38;;;;;;;8.15;6.32;;;;;;;18.40;94.45;99069.06;5078182;28;20090;-85
2023/07/20 03:07:22;;;;;;;8.57;6.38;;;;;;;18.32;95.71;99071.34;5079105;28;20556;-85
2023/07/20 03:10:09;;;;;;;9.80;6.47;;;;;;;18.42;94.82;99079.47;5080068;28;20093;-83
2023/07/20 03:12:54;;;;;;;8.98;6.50;;;;;;;18.59;94.64;99071.44;5078040;28;20101;-83
2023/07/20 03:15:37;;;;;;;11.05;6.53;;;;;;;19.13;92.89;99072.63;5073233;28;20628;-84
2023/07/20 03:18:21;;;;;;;11.85;6.30;;;;;;;18.99;91.92;99072.22;5075142;28;20139;-84
2023/07/20 03:21:07;;;;;;;10.10;6.93;;;;;;;19.28;91.10;99079.94;5077369;28;20079;-84
2023/07/20 03:23:51;;;;;;;6.93;5.47;;;;;;;19.42;90.54;99077.69;5077985;28;20085;-84
2023/07/20 03:26:36;;;;;;;9.15;5.80;;;;;;;19.36;90.30;99076.03;5081196;28;20051;-84
2023/07/20 03:29:20;;;;;;;9.13;6.20;;;;;;;19.57;89.45;99081.53;5077147;28;20069;-82
2023/07/20 03:32:04;;;;;;;8.40;5.90;;;;;;;19.66;89.54;99074.72;5077446;28;20042;-81
2023/07/20 03:34:48;;;;;;;8.40;6.00;;;;;;;19.65;89.00;99079.22;5080018;28;20137;-83
2023/07/20 03:37:34;;;;;;;11.90;6.50;;;;;;;19.53;89.59;99078.56;5078207;28;20074;-81
2023/07/20 03:40:18;;;;;;;10.07;6.20;;;;;;;19.65;89.18;99078.41;5078199;28;20115;-80
2023/07/20 03:43:03;;;;;;;10.75;6.60;;;;;;;19.72;89.19;99079.00;5077716;28;20040;-80
2023/07/20 03:45:51;;;;;;;11.10;6.70;;;;;;;19.24;90.93;99074.31;5081283;28;20400;-82
2023/07/20 03:48:35;;;;;;;11.77;6.63;;;;;;;19.52;90.43;99079.63;5083400;28;20047;-82
2023/07/20 03:51:18;;;;;;;12.43;6.90;;;;;;;19.82;88.99;99078.28;5080181;28;20051;-81
2023/07/20 03:54:02;;;;;;;8.07;6.22;;;;;;;19.62;89.70;99073.59;5081309;28;20067;-82
2023/07/20 03:56:46;;;;;;;9.32;5.60;;;;;;;19.92;88.69;99072.28;5078803;28;20111;-82
2023/07/20 03:59:31;;;;;;;12.57;6.38;;;;;;;19.58;89.89;99065.31;5078336;28;20508;-82
2023/07/20 04:02:15;;;;;;;9.68;6.28;;;;;;;19.90;89.04;99069.03;5082397;28;20043;-83
2023/07/20 04:04:58;;;;;;;8.60;6.18;;;;;;;20.02;88.40;99067.00;5077419;28;20035;-83
2023/07/20 04:07:42;;;;;;;8.75;6.03;;;;;;;19.87;88.23;99069.53;5076013;28;20063;-83
2023/07/20 04:10:26;;;;;;;8.07;6.22;;;;;;;19.98;88.03;99074.72;5077001;28;20043;-82
2023/07/20 04:13:11;;;;;;;14.70;6.78;;;;;;;19.87;88.35;99070.34;5078875;28;20085;-83
2023/07/20 04:15:55;;;;;;;7.75;6.00;;;;;;;20.03;87.75;99076.59;5078580;28;20039;-82
2023/07/20 04:18:39;;;;;;;9.35;6.72;;;;;;;19.87;88.38;99069.53;5079669;28;20094;-82
2023/07/20 04:21:25;;;;;;;9.82;6.30;;;;;;;19.98;88.01;99077.38;5081545;28;20040;-81
2023/07/20 04:24:09;;;;;;;9.73;7.18;;;;;;;20.04;87.70;99062.22;5080209;28;20086;-82
2023/07/20 04:26:54;;;;;;;15.65;7.45;;;;;;;19.94;87.88;99078.13;5074948;28;20583;-81
2023/07/20 04:29:38;;;;;;;12.95;7.25;;;;;;;19.85;88.07;99064.47;5078339;28;20043;-82
2023/07/20 04:32:22;;;;;;;10.90;7.30;;;;;;;19.62;88.58;99069.09;5075642;28;20040;-81
2023/07/20 04:35:07;;;;;;;14.82;7.28;;;;;;;19.59;89.39;99063.44;5081717;28;20046;-82
2023/07/20 04:37:52;;;;;;;12.70;7.65;;;;;;;19.55;89.39;99063.97;5076353;28;20670;-83
2023/07/20 04:40:36;;;;;;;12.77;7.88;;;;;;;19.74;88.92;99060.91;5081146;28;20090;-81
2023/07/20 04:43:19;;;;;;;11.57;7.03;;;;;;;19.67;88.84;99052.34;5078180;28;20605;-81
2023/07/20 04:46:03;;;;;;;13.23;7.40;;;;;;;20.29;87.03;99059.97;5078190;28;20147;-81
2023/07/20 04:48:47;;;;;;;13.13;7.90;;;;;;;19.47;89.10;99052.97;5077532;28;20517;-82
2023/07/20 04:51:32;;;;;;;10.60;7.72;;;;;;;19.81;88.89;99048.19;5079193;28;20047;-81
2023/07/20 04:54:17;;;;;;;13.85;7.93;;;;;;;19.84;88.57;99046.88;5079557;28;20047;-81
2023/07/20 04:57:01;;;;;;;10.68;7.60;;;;;;;19.75;88.59;99057.19;5081184;28;20564;-82
2023/07/20 04:59:45;;;;;;;12.57;7.93;;;;;;;19.97;88.06;99051.81;5078478;28;20039;-81
2023/07/20 05:02:29;;;;;;;11.77;7.95;;;;;;;19.60;88.50;99065.88;5079973;28;20544;-82
2023/07/20 05:05:13;;;;;;;12.75;8.05;;;;;;;19.84;88.09;99060.97;5076335;28;20031;-82
2023/07/20 05:07:57;;;;;;;17.60;8.43;;;;;;;20.00;87.60;99055.78;5080437;28;20059;-82
2023/07/20 05:10:41;;;;;;;15.02;8.93;;;;;;;20.07;87.49;99056.41;5082644;28;20093;-81
2023/07/20 05:13:25;;;;;;;17.10;8.85;;;;;;;20.27;87.14;99057.56;5076260;28;20098;-82
2023/07/20 05:16:08;;;;;;;14.98;8.30;;;;;;;19.65;88.62;99065.09;5077155;28;20063;-81
2023/07/20 05:18:53;;;;;;;12.80;8.05;;;;;;;19.98;87.95;99057.91;5078166;28;20050;-81
2023/07/20 05:21:36;;;;;;;12.88;8.93;;;;;;;20.04;87.64;99064.88;5080645;28;20136;-81
2023/07/20 05:24:20;;;;;;;14.65;9.27;;;;;;;20.11;87.07;99060.16;5081686;28;20218;-82
2023/07/20 05:27:05;;;;;;;12.45;8.30;;;;;;;19.86;88.48;99068.72;5078076;28;20557;-80
2023/07/20 05:29:49;;;;;;;12.73;8.50;;;;;;;20.50;86.44;99059.00;5070512;28;20124;-81
2023/07/20 05:32:33;;;;;;;14.05;9.30;;;;;;;20.49;86.63;99056.63;5076748;28;20090;-82
2023/07/20 05:35:18;;;;;;;14.82;8.35;;;;;;;20.89;85.19;99063.19;5079877;28;21830;-81
2023/07/20 05:38:04;;;;;;;13.70;8.30;;;;;;;20.99;84.60;99067.75;5079858;28;20100;-83
2023/07/20 05:40:48;;;;;;;14.80;8.77;;;;;;;20.81;85.27;99061.03;5083428;28;20039;-82
2023/07/20 05:43:32;;;;;;;13.25;8.38;;;;;;;21.14;83.77;99053.66;5080140;28;20101;-81
2023/07/20 05:46:16;;;;;;;16.42;8.73;;;;;;;20.87;84.87;99070.66;5078100;28;20079;-81
2023/07/20 05:49:00;;;;;;;14.80;8.77;;;;;;;21.06;83.84;99056.84;5075604;28;20043;-81
2023/07/20 05:51:45;;;;;;;15.73;8.77;;;;;;;21.25;83.21;99063.28;5073211;28;20082;-81
2023/07/20 05:54:29;;;;;;;15.48;9.30;;;;;;;20.87;84.19;99070.66;5075978;28;20077;-82
2023/07/20 05:57:13;;;;;;;18.13;10.23;;;;;;;20.75;84.38;99072.72;5079247;28;20432;-82
2023/07/20 05:59:57;;;;;;;15.30;9.52;;;;;;;21.12;83.76;99066.44;5076273;28;20047;-80
2023/07/20 06:02:41;;;;;;;15.82;9.63;;;;;;;21.49;82.77;99059.28;5075841;28;20048;-79
2023/07/20 06:05:25;;;;;;;13.75;9.52;;;;;;;21.41;83.42;99073.97;5080975;28;20603;-79
2023/07/20 06:08:09;;;;;;;18.10;10.23;;;;;;;21.57;81.92;99072.13;5071603;28;20071;-79
2023/07/20 06:10:53;;;;;;;16.45;10.23;;;;;;;21.70;81.34;99068.16;5074117;28;20043;-79
2023/07/20 06:13:37;;;;;;;18.45;10.82;;;;;;;21.93;80.76;99057.97;5078315;28;20500;-81
2023/07/20 06:16:21;;;;;;;16.73;10.90;;;;;;;22.30;78.88;99069.38;5073873;28;20043;-81
2023/07/20 06:19:05;;;;;;;15.32;10.63;;;;;;;22.10;79.18;99061.16;5073313;28;20039;-81
2023/07/20 06:21:52;;;;;;;20.85;11.50;;;;;;;21.93;78.43;99064.13;5080485;28;20093;-81
2023/07/20 06:24:36;;;;;;;15.00;10.50;;;;;;;21.88;78.92;99058.75;5081673;28;20049;-80
2023/07/20 06:27:20;;;;;;;16.88;10.93;;;;;;;21.74;79.59;99065.75;5080632;28;20047;-84
2023/07/20 06:30:04;;;;;;;19.60;11.48;;;;;;;21.96;79.24;99068.94;5075200;28;20417;-81
2023/07/20 06:32:48;;;;;;;20.17;12.13;;;;;;;21.94;79.13;99064.91;5082099;28;20042;-83
2023/07/20 06:35:34;;;;;;;19.80;12.68;;;;;;;21.61;78.88;99067.84;5074820;28;20051;-83
2023/07/20 06:38:23;;;;;;;22.65;11.57;;;;;;;21.63;78.90;99062.25;5074913;28;20449;-84
2023/07/20 06:41:06;;;;;;;16.42;11.95;;;;;;;22.28;77.27;99068.84;5072945;28;20051;-83
2023/07/20 06:43:52;;;;;;;16.10;11.30;;;;;;;22.56;76.49;99072.81;5078073;28;20134;-84
2023/07/20 06:46:36;;;;;;;18.63;12.90;;;;;;;22.40;75.80;99072.84;5080142;28;20051;-85
2023/07/20 06:49:27;;;;;;;16.83;12.15;;;;;;;22.24;76.08;99076.63;5078656;28;20061;-84
2023/07/20 06:52:12;;;;;;;19.45;11.88;;;;;;;22.70;75.26;99062.34;5076131;28;20090;-84
2023/07/20 06:54:56;;;;;;;21.15;12.95;;;;;;;22.86;74.63;99067.59;5078094;28;20109;-84
2023/07/20 06:57:39;;;;;;;18.35;12.80;;;;;;;22.74;74.21;99066.06;5076494;28;20581;-84
2023/07/20 07:00:23;;;;;;;20.20;12.20;;;;;;;22.75;74.24;99064.16;5075163;28;20047;-83
2023/07/20 07:03:08;;;;;;;19.98;12.60;;;;;;;22.57;75.01;99076.28;5080057;28;20047;-85
2023/07/20 07:05:55;;;;;;;17.48;12.35;;;;;;;22.66;73.98;99075.47;5083817;28;20059;-84
2023/07/20 07:08:39;;;;;;;20.23;12.73;;;;;;;22.87;73.77;99072.69;5072557;28;20039;-84
2023/07/20 07:11:23;;;;;;;19.75;13.10;;;;;;;22.81;72.70;99071.13;5074913;28;20043;-84
2023/07/20 07:14:07;;;;;;;19.08;12.38;;;;;;;23.20;72.48;99072.22;5080752;28;20090;-84
2023/07/20 07:16:51;;;;;;;20.45;12.65;;;;;;;22.50;73.53;99071.22;5078893;28;20095;-84
2023/07/20 07:19:36;;;;;;;17.60;12.15;;;;;;;22.43;73.14;99071.50;5083392;28;20039;-83
2023/07/20 07:22:23;;;;;;;20.48;12.88;;;;;;;22.71;72.01;99073.81;5072259;28;20169;-85
2023/07/20 07:25:08;;;;;;;17.02;12.02;;;;;;;22.57;72.60;99066.38;5078894;28;20075;-83
2023/07/20 07:27:53;;;;;;;20.80;12.85;;;;;;;23.21;70.94;99074.63;5078640;28;20496;-83
2023/07/20 07:30:38;;;;;;;17.25;12.23;;;;;;;22.30;72.20;99080.88;5078250;28;20066;-83
2023/07/20 07:33:22;;;;;;;19.15;13.05;;;;;;;22.76;71.69;99076.47;5079904;28;20084;-85
2023/07/20 07:36:07;;;;;;;18.48;12.55;;;;;;;22.54;72.12;99078.44;5082066;28;20069;-84
2023/07/20 07:38:51;;;;;;;16.92;12.68;;;;;;;22.81;71.55;99071.13;5080183;28;20096;-88
2023/07/20 07:41:35;;;;;;;22.60;14.05;;;;;;;23.35;69.97;99079.38;5078157;28;20043;-88
2023/07/20 07:44:21;;;;;;;18.05;12.57;;;;;;;23.40;69.43;99074.00;5079664;28;20082;-82
2023/07/20 07:47:05;;;;;;;27.05;13.48;;;;;;;22.79;70.74;99073.25;5082000;28;20114;-87
2023/07/20 07:49:51;;;;;;;18.60;12.10;;;;;;;23.14;69.34;99074.13;5075745;28;20102;-88
2023/07/20 07:52:35;;;;;;;16.05;11.85;;;;;;;23.47;68.79;99081.72;5086296;28;20089;-87
2023/07/20 07:55:19;;;;;;;17.30;12.02;;;;;;;23.41;68.00;99080.16;5082131;28;20555;-88
2023/07/20 07:58:03;;;;;;;18.02;11.75;;;;;;;23.78;67.44;99081.47;5083515;28;20660;-85
2023/07/20 08:00:47;;;;;;;17.33;12.30;;;;;;;23.52;67.15;99090.50;5081175;28;20047;-84
2023/07/20 08:03:31;;;;;;;18.27;12.45;;;;;;;23.70;66.57;99085.56;5082112;28;20058;-83
2023/07/20 08:06:15;;;;;;;16.63;11.57;;;;;;;23.08;66.52;99085.97;5082440;28;20052;-85
2023/07/20 08:08:59;;;;;;;16.52;11.63;;;;;;;23.92;65.69;99089.66;5079338;28;20615;-88
2023/07/20 08:11:43;;;;;;;15.73;11.57;;;;;;;23.55;65.70;99091.84;5082353;28;20062;-91
2023/07/20 08:14:28;;;;;;;18.85;11.50;;;;;;;23.81;65.42;99091.63;5084033;28;20106;-89
2023/07/20 08:17:12;;;;;;;15.90;11.32;;;;;;;23.53;66.18;99091.31;5096189;28;20049;-87
2023/07/20 08:19:56;;;;;;;15.57;10.15;;;;;;;23.94;64.74;99090.16;5081322;28;20105;-90
2023/07/20 08:22:40;;;;;;;15.73;11.20;;;;;;;23.88;64.72;99089.44;5080809;28;20039;-88
2023/07/20 08:25:24;;;;;;;22.17;12.02;;;;;;;23.66;64.22;99097.91;5076366;28;20117;-87
2023/07/20 08:28:09;;;;;;;13.65;10.20;;;;;;;23.51;63.12;99094.28;5085404;28;20044;-89
2023/07/20 08:30:53;;;;;;;23.23;11.23;;;;;;;23.53;63.53;99096.69;5078441;28;20071;-81
2023/07/20 08:33:37;;;;;;;20.83;10.85;;;;;;;23.81;63.44;99097.00;5075395;28;20056;-81
2023/07/20 08:36:21;;;;;;;14.80;10.35;;;;;;;23.16;63.98;99088.03;5084486;28;20079;-82
2023/07/20 08:39:05;;;;;;;16.40;11.20;;;;;;;24.24;62.32;99093.69;5077767;28;20113;-82
2023/07/20 08:41:49;;;;;;;16.02;10.48;;;;;;;24.12;62.34;99094.06;5073694;28;20055;-81
2023/07/20 08:44:34;;;;;;;15.93;11.02;;;;;;;24.46;61.53;99105.78;5075673;28;20055;-81
2023/07/20 08:47:20;;;;;;;13.00;9.98;;;;;;;24.65;60.87;99103.94;5077537;28;20105;-80
2023/07/20 08:50:07;;;;;;;13.38;9.85;;;;;;;25.64;59.90;99102.66;5080297;28;20047;-84
2023/07/20 08:52:52;;;;;;;13.98;9.75;;;;;;;25.49;58.84;99104.47;5072653;28;20075;-85
2023/07/20 08:55:37;;;;;;;12.27;10.13;;;;;;;25.34;57.87;99099.31;5080118;28;20051;-86
2023/07/20 08:58:23;;;;;;;12.43;9.18;;;;;;;25.19;57.83;99100.34;5075832;28;20108;-82
2023/07/20 09:01:08;;;;;;;13.13;10.45;;;;;;;24.93;58.23;99114.91;5084787;28;20130;-91
2023/07/20 09:03:52;;;;;;;14.60;10.10;;;;;;;24.96;58.20;99108.16;5083301;28;20047;-86
2023/07/20 09:06:36;;;;;;;17.25;10.40;;;;;;;25.36;58.30;99106.00;5077270;28;20098;-84
2023/07/20 09:09:21;;;;;;;13.43;10.10;;;;;;;25.24;58.28;99098.38;5083749;28;20042;-85
2023/07/20 09:12:05;;;;;;;15.40;10.70;;;;;;;25.27;58.32;99102.38;5082806;28;20079;-85
2023/07/20 09:14:49;;;;;;;14.18;10.48;;;;;;;24.77;58.60;99102.78;5078503;28;20515;-83
2023/07/20 09:17:33;;;;;;;15.95;10.40;;;;;;;25.00;58.30;99103.81;5085158;28;20622;-86
2023/07/20 09:20:18;;;;;;;15.25;11.18;;;;;;;24.60;57.90;99095.16;5077788;28;20417;-83
2023/07/20 09:23:08;;;;;;;14.13;11.43;;;;;;;24.46;59.49;99103.88;5083025;28;20454;-82
2023/07/20 09:25:52;;;;;;;13.88;11.63;;;;;;;24.56;59.75;99100.28;5076434;28;20055;-84
2023/07/20 09:28:47;;;;;;;14.18;10.68;;;;;;;25.21;58.38;99104.34;5076559;28;20052;-85
2023/07/20 09:31:33;;;;;;;13.20;10.85;;;;;;;25.10;57.99;99100.19;5084685;28;20042;-85
2023/07/20 09:34:19;;;;;;;13.60;10.55;;;;;;;25.22;58.06;99097.88;5081603;28;20057;-84
2023/07/20 09:37:03;;;;;;;14.60;11.30;;;;;;;24.75;58.42;99102.22;5076304;28;20062;-85
2023/07/20 09:39:48;;;;;;;14.90;10.05;;;;;;;24.99;58.37;99109.50;5081641;28;20188;-84
2023/07/20 09:42:32;;;;;;;11.35;9.57;;;;;;;25.65;57.42;99104.25;5078145;28;20512;-87
2023/07/20 09:45:17;;;;;;;13.10;10.45;;;;;;;26.03;56.45;99104.16;5078809;28;20596;-88
2023/07/20 09:48:06;;;;;;;17.40;11.93;;;;;;;26.18;56.25;99100.41;5086794;28;20050;-87
2023/07/20 09:50:51;;;;;;;16.00;11.40;;;;;;;26.20;56.24;99100.13;5075212;28;20051;-84
2023/07/20 09:53:36;;;;;;;14.57;10.88;;;;;;;26.45;54.98;99098.03;5077128;28;20047;-87
2023/07/20 09:56:23;;;;;;;14.35;11.00;;;;;;;26.56;55.47;99099.44;5082749;28;20555;-86
2023/07/20 09:59:07;;;;;;;14.18;10.98;;;;;;;26.59;55.87;99101.53;5074366;28;20051;-85
2023/07/20 10:01:58;;;;;;;13.48;10.93;;;;;;;26.05;56.18;99093.88;5074692;28;20094;-84
2023/07/20 10:04:43;;;;;;;15.05;11.20;;;;;;;27.05;55.36;99096.28;5083542;28;20112;-87
2023/07/20 10:07:30;;;;;;;12.70;10.10;;;;;;;26.74;54.79;99091.56;5077569;28;20105;-86
2023/07/20 10:10:19;;;;;;;16.63;11.02;;;;;;;26.64;55.08;99087.97;5081401;28;20058;-89
2023/07/20 10:13:04;;;;;;;16.55;10.85;;;;;;;26.35;55.45;99089.06;5079295;28;20051;-88
2023/07/20 10:15:58;;;;;;;15.02;10.73;;;;;;;26.77;55.56;99091.72;5083933;28;20108;-86
2023/07/20 10:19:03;;;;;;;15.65;11.60;;;;;;;26.56;55.58;99085.97;5079245;28;20091;-86
2023/07/20 10:21:55;;;;;;;16.48;11.65;;;;;;;26.48;55.90;99089.34;5081242;28;20055;-87
2023/07/20 10:24:45;;;;;;;15.70;11.85;;;;;;;26.83;56.71;99089.72;5082217;28;20066;-86
2023/07/20 10:27:29;;;;;;;15.85;10.65;;;;;;;26.81;54.94;99087.31;5076333;28;20417;-86
2023/07/20 10:30:14;;;;;;;14.68;11.70;;;;;;;26.81;54.14;99081.16;5081182;28;20512;-85
2023/07/20 10:33:02;;;;;;;15.93;11.75;;;;;;;26.71;54.14;99087.56;5077113;28;20055;-84
2023/07/20 10:35:54;;;;;;;15.82;11.77;;;;;;;27.09;54.84;99086.50;5080237;28;20106;-86
2023/07/20 10:38:40;;;;;;;16.15;12.00;;;;;;;27.20;54.65;99087.88;5083403;28;20173;-86
2023/07/20 10:41:28;;;;;;;15.57;11.57;;;;;;;27.45;53.73;99084.88;5076884;28;20048;-84
2023/07/20 10:44:13;;;;;;;14.88;11.18;;;;;;;27.38;53.35;99078.00;5082010;28;20043;-84
2023/07/20 10:47:02;;;;;;;13.90;11.60;;;;;;;26.88;53.49;99076.19;5077558;28;20051;-84
2023/07/20 10:50:07;;;;;;;16.40;11.73;;;;;;;27.18;53.80;99076.59;5082072;28;20043;-85
2023/07/20 10:53:18;;;;;;;13.90;10.95;;;;;;;27.10;53.92;99069.22;5081677;28;20062;-85
2023/07/20 10:56:22;;;;;;;15.55;11.50;;;;;;;27.54;52.38;99069.59;5080329;28;20125;-83
2023/07/20 10:59:20;;;;;;;18.73;11.45;;;;;;;27.12;52.52;99072.44;5078700;28;20039;-84
2023/07/20 11:02:08;;;;;;;14.40;11.05;;;;;;;26.80;53.85;99066.09;5080020;28;20090;-86
2023/07/20 11:04:53;;;;;;;15.15;10.85;;;;;;;27.86;51.70;99066.91;5081604;28;20039;-84
2023/07/20 11:07:40;;;;;;;15.43;11.70;;;;;;;27.68;53.08;99061.41;5084332;28;20063;-83
2023/07/20 11:10:25;;;;;;;15.80;12.02;;;;;;;27.98;51.59;99056.34;5086300;28;20358;-83
2023/07/20 11:13:16;;;;;;;16.05;11.82;;;;;;;28.43;51.51;99065.41;5080731;28;20047;-84
2023/07/20 11:16:00;;;;;;;15.02;11.10;;;;;;;28.23;50.93;99059.47;5079837;28;20653;-83
2023/07/20 11:18:44;;;;;;;12.38;10.48;;;;;;;27.51;50.22;99054.84;5086969;28;20040;-83
2023/07/20 11:21:35;;;;;;;12.00;10.55;;;;;;;26.82;51.60;99061.22;5082597;28;20114;-84
2023/07/20 11:24:19;;;;;;;15.30;10.77;;;;;;;26.33;52.07;99053.56;5087214;28;20044;-83
2023/07/20 11:27:03;;;;;;;13.82;10.90;;;;;;;27.29;50.76;99052.91;5079537;28;20060;-84
2023/07/20 11:29:48;;;;;;;14.07;10.18;;;;;;;26.91;50.44;99056.72;5081680;28;20105;-84
2023/07/20 11:32:32;;;;;;;10.73;9.32;;;;;;;27.47;48.28;99048.44;5082602;28;20090;-85
2023/07/20 11:35:16;;;;;;;11.48;9.65;;;;;;;26.94;48.34;99044.53;5081295;28;20039;-84
2023/07/20 11:38:00;;;;;;;12.25;9.77;;;;;;;26.59;48.56;99050.38;5087033;28;20460;-83
2023/07/20 11:40:45;;;;;;;12.27;9.32;;;;;;;27.21;49.37;99045.53;5081346;28;20062;-85
2023/07/20 11:43:30;;;;;;;14.30;9.45;;;;;;;26.55;48.86;99038.63;5084587;28;20097;-83
2023/07/20 11:46:16;;;;;;;14.70;10.13;;;;;;;26.76;49.69;99041.66;5081346;28;20101;-83
2023/07/20 11:49:00;;;;;;;11.80;9.00;;;;;;;26.90;49.13;99035.50;5083181;28;20115;-84
2023/07/20 11:51:44;;;;;;;11.90;10.02;;;;;;;26.52;49.53;99040.03;5081279;28;20515;-84
2023/07/20 11:54:29;;;;;;;13.02;10.15;;;;;;;26.20;50.10;99035.56;5079634;28;20070;-84
2023/07/20 11:57:20;;;;;;;12.35;10.20;;;;;;;26.12;49.40;99033.53;5082255;28;21820;-84
2023/07/20 12:00:09;;;;;;;12.25;9.75;;;;;;;25.67;50.14;99033.00;5079165;28;20043;-83
2023/07/20 12:02:53;;;;;;;11.05;9.40;;;;;;;26.05;49.37;99032.03;5077409;28;20394;-83
2023/07/20 12:05:41;;;;;;;12.23;9.27;;;;;;;26.37;49.33;99027.69;5078125;28;20130;-84
2023/07/20 12:08:25;;;;;;;14.18;9.77;;;;;;;26.45;49.13;99028.06;5083327;28;20109;-84
2023/07/20 12:11:09;;;;;;;12.40;9.35;;;;;;;26.88;48.52;99006.16;5084781;28;20035;-83
2023/07/20 12:13:58;;;;;;;11.88;8.25;;;;;;;27.43;47.22;99011.63;5079186;28;20571;-84
2023/07/20 12:16:42;;;;;;;10.65;7.78;;;;;;;27.14;45.83;99010.97;5082819;28;20085;-83
2023/07/20 12:19:26;;;;;;;11.00;7.97;;;;;;;26.85;46.43;99011.34;5081830;28;20366;-84
2023/07/20 12:22:11;;;;;;;10.18;8.52;;;;;;;26.62;47.23;99020.16;5083902;28;20079;-84
2023/07/20 12:24:55;;;;;;;11.85;8.68;;;;;;;27.27;45.95;99009.31;5077553;28;20109;-83
2023/07/20 12:27:40;;;;;;;10.98;9.38;;;;;;;27.28;46.25;99012.78;5082222;28;20030;-84
2023/07/20 12:30:23;;;;;;;10.32;8.73;;;;;;;27.72;45.99;99011.19;5080203;28;20106;-84
2023/07/20 12:33:08;;;;;;;11.25;9.20;;;;;;;28.03;44.41;99015.75;5084222;28;20061;-84
2023/07/20 12:35:55;;;;;;;19.42;8.57;;;;;;;27.61;45.59;99004.47;5080204;28;20076;-84
2023/07/20 12:38:41;;;;;;;9.45;8.50;;;;;;;27.40;46.55;99004.94;5078523;28;20066;-83
2023/07/20 12:41:25;;;;;;;10.07;8.77;;;;;;;27.60;45.43;99000.16;5075944;28;20046;-83
2023/07/20 12:44:09;;;;;;;9.10;8.07;;;;;;;27.34;46.62;99003.50;5084074;28;20042;-83
2023/07/20 12:46:53;;;;;;;14.60;7.82;;;;;;;27.15;46.64;99003.66;5080391;28;20440;-84
2023/07/20 12:49:37;;;;;;;10.07;8.07;;;;;;;26.73;44.42;98993.81;5079524;28;20051;-82